createdAt,value
2022-09-15T00:01:12.414Z,17.04
2022-09-15T00:03:40.802Z,16.99
2022-09-15T00:06:09.054Z,16.92
2022-09-15T00:08:36.917Z,16.88
2022-09-15T00:11:06.631Z,16.83
2022-09-15T00:13:35.519Z,16.80
2022-09-15T00:16:03.854Z,16.73
2022-09-15T00:18:31.909Z,16.67
2022-09-15T00:20:59.339Z,16.63
2022-09-15T00:23:26.808Z,16.58
2022-09-15T00:25:54.253Z,16.52
2022-09-15T00:28:22.829Z,16.48
2022-09-15T00:30:54.646Z,16.46
2022-09-15T00:33:23.005Z,16.45
2022-09-15T00:35:52.165Z,16.42
2022-09-15T00:38:20.553Z,16.39
2022-09-15T00:40:53.849Z,16.36
2022-09-15T00:43:42.919Z,16.33
2022-09-15T00:46:10.839Z,16.31
2022-09-15T00:48:42.959Z,16.27
2022-09-15T00:51:13.320Z,16.24
2022-09-15T00:53:40.893Z,16.21
2022-09-15T00:56:09.912Z,16.21
2022-09-15T00:58:55.575Z,16.19
2022-09-15T01:01:24.567Z,16.17
2022-09-15T01:03:51.840Z,16.15
2022-09-15T01:06:28.824Z,16.14
2022-09-15T01:09:11.362Z,16.13
2022-09-15T01:11:39.319Z,16.12
2022-09-15T01:14:06.779Z,16.12
2022-09-15T01:17:07.820Z,16.13
2022-09-15T01:20:01.272Z,16.14
2022-09-15T01:22:34.257Z,16.14
2022-09-15T01:25:14.816Z,16.14
2022-09-15T01:27:53.970Z,16.16
2022-09-15T01:30:22.614Z,16.16
2022-09-15T01:33:05.633Z,16.16
2022-09-15T01:36:00.573Z,16.17
2022-09-15T01:38:45.540Z,16.16
2022-09-15T01:41:25.903Z,16.15
2022-09-15T01:44:11.099Z,16.15
2022-09-15T01:46:47.423Z,16.13
2022-09-15T01:49:21.032Z,16.12
2022-09-15T01:51:51.980Z,16.09
2022-09-15T01:54:40.025Z,16.08
2022-09-15T01:57:07.480Z,16.07
2022-09-15T01:59:35.134Z,16.06
2022-09-15T02:02:06.393Z,16.03
2022-09-15T02:04:41.626Z,16.00
2022-09-15T02:07:16.753Z,15.95
2022-09-15T02:09:49.965Z,15.90
2022-09-15T02:12:37.780Z,15.83
2022-09-15T02:15:11.960Z,15.79
2022-09-15T02:17:44.145Z,15.76
2022-09-15T02:20:18.575Z,15.75
2022-09-15T02:22:50.082Z,15.74
2022-09-15T02:25:20.039Z,15.72
2022-09-15T02:27:50.766Z,15.72
2022-09-15T02:30:20.168Z,15.73
2022-09-15T02:33:00.130Z,15.73
2022-09-15T02:35:29.170Z,15.70
2022-09-15T02:37:56.700Z,15.66
2022-09-15T02:40:24.496Z,15.62
2022-09-15T02:42:54.269Z,15.58
2022-09-15T02:45:21.881Z,15.56
2022-09-15T02:47:50.527Z,15.53
2022-09-15T02:50:19.410Z,15.51
2022-09-15T02:52:47.180Z,15.48
2022-09-15T02:55:14.404Z,15.44
2022-09-15T02:57:41.682Z,15.42
2022-09-15T03:00:16.402Z,15.38
2022-09-15T03:02:46.650Z,15.37
2022-09-15T03:05:15.259Z,15.36
2022-09-15T03:07:42.654Z,15.32
2022-09-15T03:10:12.408Z,15.30
2022-09-15T03:12:57.868Z,15.28
2022-09-15T03:15:26.633Z,15.26
2022-09-15T03:17:54.491Z,15.25
2022-09-15T03:20:24.117Z,15.22
2022-09-15T03:22:51.345Z,15.20
2022-09-15T03:25:18.904Z,15.19
2022-09-15T03:27:46.380Z,15.17
2022-09-15T03:30:14.836Z,15.13
2022-09-15T03:32:42.309Z,15.08
2022-09-15T03:35:10.299Z,15.02
2022-09-15T03:37:37.743Z,14.94
2022-09-15T03:40:05.967Z,14.87
2022-09-15T03:42:33.382Z,14.79
2022-09-15T03:45:01.759Z,14.73
2022-09-15T03:47:29.420Z,14.66
2022-09-15T03:49:56.880Z,14.62
2022-09-15T03:52:24.220Z,14.58
2022-09-15T03:54:51.471Z,14.55
2022-09-15T03:57:18.733Z,14.52
2022-09-15T03:59:45.973Z,14.48
2022-09-15T04:02:14.594Z,14.44
2022-09-15T04:04:41.941Z,14.41
2022-09-15T04:07:09.673Z,14.36
2022-09-15T04:09:37.662Z,14.34
2022-09-15T04:12:05.520Z,14.31
2022-09-15T04:14:32.754Z,14.29
2022-09-15T04:16:59.904Z,14.26
2022-09-15T04:19:27.170Z,14.22
2022-09-15T04:21:54.530Z,14.19
2022-09-15T04:24:21.773Z,14.17
2022-09-15T04:26:49.425Z,14.16
2022-09-15T04:29:18.030Z,14.16
2022-09-15T04:31:47.119Z,14.16
2022-09-15T04:34:14.670Z,14.17
2022-09-15T04:36:42.231Z,14.18
2022-09-15T04:39:09.790Z,14.18
2022-09-15T04:41:36.945Z,14.16
2022-09-15T04:44:04.649Z,14.14
2022-09-15T04:46:32.029Z,14.11
2022-09-15T04:48:59.618Z,14.11
2022-09-15T04:51:27.696Z,14.10
2022-09-15T04:53:56.007Z,14.09
2022-09-15T04:56:26.083Z,14.08
2022-09-15T04:58:59.503Z,14.07
2022-09-15T05:01:31.983Z,14.06
2022-09-15T05:03:59.461Z,14.05
2022-09-15T05:06:27.988Z,14.05
2022-09-15T05:08:57.861Z,14.04
2022-09-15T05:11:25.887Z,14.04
2022-09-15T05:13:53.775Z,14.04
2022-09-15T05:16:23.954Z,14.03
2022-09-15T05:18:52.145Z,14.03
2022-09-15T05:21:21.276Z,14.03
2022-09-15T05:23:49.348Z,14.04
2022-09-15T05:26:22.490Z,14.06
2022-09-15T05:28:50.077Z,14.07
2022-09-15T05:31:28.977Z,14.09
2022-09-15T05:33:56.550Z,14.11
2022-09-15T05:36:28.504Z,14.13
2022-09-15T05:38:59.436Z,14.14
2022-09-15T05:41:28.898Z,14.17
2022-09-15T05:43:57.751Z,14.19
2022-09-15T05:46:28.617Z,14.23
2022-09-15T05:48:57.263Z,14.26
2022-09-15T05:51:24.830Z,14.30
2022-09-15T05:53:52.470Z,14.34
2022-09-15T05:56:21.456Z,14.37
2022-09-15T05:58:49.535Z,14.38
2022-09-15T06:01:25.536Z,14.40
2022-09-15T06:03:53.901Z,14.44
2022-09-15T06:06:22.483Z,14.48
2022-09-15T06:08:57.725Z,14.54
2022-09-15T06:11:31.133Z,14.60
2022-09-15T06:14:03.526Z,14.66
2022-09-15T06:16:35.389Z,14.72
2022-09-15T06:19:02.778Z,14.75
2022-09-15T06:21:32.050Z,14.80
2022-09-15T06:24:01.453Z,14.87
2022-09-15T06:26:29.052Z,14.93
2022-09-15T06:29:01.139Z,14.95
2022-09-15T06:31:31.780Z,14.97
2022-09-15T06:34:10.270Z,15.00
2022-09-15T06:36:39.046Z,15.04
2022-09-15T06:39:06.619Z,15.09
2022-09-15T06:41:52.928Z,15.14
2022-09-15T06:44:21.501Z,15.20
2022-09-15T06:46:49.770Z,15.25
2022-09-15T06:49:17.541Z,15.33
2022-09-15T06:51:45.811Z,15.42
2022-09-15T06:54:13.044Z,15.55
2022-09-15T06:56:40.631Z,15.63
2022-09-15T06:59:08.071Z,15.70
2022-09-15T07:01:35.531Z,15.73
2022-09-15T07:04:06.065Z,15.78
2022-09-15T07:06:34.472Z,15.86
2022-09-15T07:09:03.109Z,15.93
2022-09-15T07:11:31.092Z,16.00
2022-09-15T07:13:58.661Z,16.04
2022-09-15T07:16:26.407Z,16.00
2022-09-15T07:18:57.166Z,15.96
2022-09-15T07:21:25.125Z,15.98
2022-09-15T07:23:52.746Z,15.97
2022-09-15T07:26:22.970Z,15.99
2022-09-15T07:28:56.576Z,16.05
2022-09-15T07:31:26.031Z,16.12
2022-09-15T07:33:53.959Z,16.20
2022-09-15T07:36:21.784Z,16.27
2022-09-15T07:38:50.007Z,16.37
2022-09-15T07:41:22.883Z,16.51
2022-09-15T07:43:51.963Z,16.60
2022-09-15T07:46:20.754Z,16.64
2022-09-15T07:48:49.929Z,16.66
2022-09-15T07:51:17.855Z,16.70
2022-09-15T07:53:46.911Z,16.74
2022-09-15T07:56:14.312Z,16.80
2022-09-15T07:58:41.545Z,16.81
2022-09-15T08:01:15.149Z,16.83
2022-09-15T08:03:49.315Z,16.88
2022-09-15T08:06:21.526Z,16.96
2022-09-15T08:08:50.727Z,17.05
2022-09-15T08:11:19.552Z,17.14
2022-09-15T08:13:47.912Z,17.26
2022-09-15T08:16:17.571Z,17.33
2022-09-15T08:18:45.664Z,17.35
2022-09-15T08:21:15.896Z,17.36
2022-09-15T08:23:44.988Z,17.32
2022-09-15T08:26:14.375Z,17.29
2022-09-15T08:28:43.193Z,17.23
2022-09-15T08:31:11.849Z,17.16
2022-09-15T08:33:43.343Z,17.10
2022-09-15T08:36:13.382Z,17.05
2022-09-15T08:38:42.339Z,17.08
2022-09-15T08:41:30.669Z,17.15
2022-09-15T08:43:58.131Z,17.24
2022-09-15T08:46:36.296Z,17.30
2022-09-15T08:49:41.209Z,17.33
2022-09-15T08:52:20.322Z,17.33
2022-09-15T08:54:47.671Z,17.35
2022-09-15T08:57:19.216Z,17.36
2022-09-15T08:59:46.343Z,17.41
2022-09-15T09:02:13.515Z,17.45
2022-09-15T09:05:01.851Z,17.48
2022-09-15T09:07:48.051Z,17.60
2022-09-15T09:10:18.337Z,17.76
2022-09-15T09:13:24.615Z,17.92
2022-09-15T09:16:22.383Z,18.02
2022-09-15T09:19:31.332Z,18.04
2022-09-15T09:22:10.927Z,18.02
2022-09-15T09:24:52.674Z,18.09
2022-09-15T09:27:24.470Z,18.16
2022-09-15T09:30:01.162Z,18.20
2022-09-15T09:32:38.486Z,18.25
2022-09-15T09:35:22.239Z,18.33
2022-09-15T09:37:51.194Z,18.41
2022-09-15T09:40:18.721Z,18.43
2022-09-15T09:42:46.040Z,18.44
2022-09-15T09:45:15.296Z,18.46
2022-09-15T09:47:43.211Z,18.47
2022-09-15T09:50:35.773Z,18.46
2022-09-15T09:53:26.766Z,18.49
2022-09-15T09:55:55.625Z,18.60
2022-09-15T09:58:25.419Z,18.77
2022-09-15T10:00:53.653Z,18.97
2022-09-15T10:03:23.403Z,19.12
2022-09-15T10:06:06.256Z,19.18
2022-09-15T10:08:33.931Z,19.19
2022-09-15T10:11:07.578Z,19.22
2022-09-15T10:13:35.920Z,19.22
2022-09-15T10:16:06.885Z,19.27
2022-09-15T10:18:37.539Z,19.38
2022-09-15T10:21:09.657Z,19.45
2022-09-15T10:23:37.300Z,19.52
2022-09-15T10:26:16.397Z,19.58
2022-09-15T10:28:44.549Z,19.66
2022-09-15T10:31:16.623Z,19.70
2022-09-15T10:33:45.340Z,19.70
2022-09-15T10:36:21.568Z,19.71
2022-09-15T10:39:07.590Z,19.75
2022-09-15T10:41:41.118Z,19.76
2022-09-15T10:44:30.384Z,19.75
2022-09-15T10:47:15.124Z,19.79
2022-09-15T10:50:01.339Z,19.75
2022-09-15T10:52:32.591Z,19.75
2022-09-15T10:55:42.205Z,19.78
2022-09-15T10:58:45.009Z,19.77
2022-09-15T11:01:32.834Z,19.77
2022-09-15T11:04:13.223Z,19.76
2022-09-15T11:07:00.531Z,19.75
2022-09-15T11:09:35.771Z,19.78
2022-09-15T11:12:55.351Z,19.81
2022-09-15T11:15:41.452Z,19.89
2022-09-15T11:18:34.706Z,19.95
2022-09-15T11:21:22.951Z,20.03
2022-09-15T11:24:09.273Z,20.13
2022-09-15T11:26:54.679Z,20.19
2022-09-15T11:29:21.970Z,20.23
2022-09-15T11:31:54.119Z,20.25
2022-09-15T11:34:28.383Z,20.24
2022-09-15T11:37:09.493Z,20.18
2022-09-15T11:39:55.376Z,20.09
2022-09-15T11:42:58.724Z,19.98
2022-09-15T11:45:28.117Z,19.91
2022-09-15T11:48:26.875Z,19.87
2022-09-15T11:50:56.409Z,19.81
2022-09-15T11:53:44.675Z,19.73
2022-09-15T11:56:25.738Z,19.58
2022-09-15T11:59:13.488Z,19.46
2022-09-15T12:01:48.911Z,19.32
2022-09-15T12:04:23.223Z,19.22
2022-09-15T12:07:16.611Z,19.16
2022-09-15T12:09:44.171Z,19.09
2022-09-15T12:12:17.452Z,19.02
2022-09-15T12:14:47.081Z,18.95
2022-09-15T12:17:43.511Z,18.90
2022-09-15T12:20:25.393Z,18.85
2022-09-15T12:23:03.116Z,18.77
2022-09-15T12:25:48.199Z,18.63
2022-09-15T12:28:24.883Z,18.50
2022-09-15T12:31:37.871Z,18.39
2022-09-15T12:34:05.334Z,18.24
2022-09-15T12:36:45.244Z,18.19
2022-09-15T12:39:32.696Z,18.15
2022-09-15T12:42:22.514Z,18.11
2022-09-15T12:45:14.632Z,18.08
2022-09-15T12:48:15.919Z,18.07
2022-09-15T12:50:44.557Z,18.06
2022-09-15T12:53:20.953Z,18.06
2022-09-15T12:55:51.595Z,18.07
2022-09-15T12:58:33.950Z,18.08
2022-09-15T13:01:19.602Z,18.11
2022-09-15T13:03:48.012Z,18.13
2022-09-15T13:06:26.549Z,18.17
2022-09-15T13:09:25.206Z,18.22
2022-09-15T13:11:52.871Z,18.29
2022-09-15T13:14:39.022Z,18.36
2022-09-15T13:17:13.162Z,18.45
2022-09-15T13:19:44.613Z,18.55
2022-09-15T13:22:11.702Z,18.63
2022-09-15T13:24:59.284Z,18.68
2022-09-15T13:27:39.049Z,18.80
2022-09-15T13:30:21.777Z,18.88
2022-09-15T13:35:00.191Z,18.93
2022-09-15T13:39:38.825Z,18.85
2022-09-15T13:42:12.165Z,18.81
2022-09-15T13:44:53.084Z,18.76
2022-09-15T13:47:32.033Z,18.71
2022-09-15T13:50:24.632Z,18.66
2022-09-15T13:53:04.014Z,18.61
2022-09-15T13:55:42.799Z,18.57
2022-09-15T14:01:03.999Z,18.44
2022-09-15T14:03:37.426Z,18.42
2022-09-15T14:06:20.944Z,18.43
2022-09-15T14:08:52.698Z,18.43
2022-09-15T14:11:29.634Z,18.44
2022-09-15T14:13:58.624Z,18.46
2022-09-15T14:16:30.634Z,18.48
2022-09-15T14:18:59.070Z,18.46
2022-09-15T14:21:31.662Z,18.41
2022-09-15T14:24:04.592Z,18.36
2022-09-15T14:26:34.630Z,18.32
2022-09-15T14:29:04.441Z,18.29
2022-09-15T14:31:36.957Z,18.27
2022-09-15T14:34:15.254Z,18.23
2022-09-15T14:36:42.689Z,18.18
2022-09-15T14:39:12.931Z,18.15
2022-09-15T14:41:40.691Z,18.14
2022-09-15T14:47:28.582Z,18.13
2022-09-15T14:50:13.763Z,18.11
2022-09-15T14:52:42.287Z,18.09
2022-09-15T14:55:44.570Z,18.08
2022-09-15T14:58:14.592Z,18.10
2022-09-15T15:01:01.265Z,18.12
2022-09-15T15:03:39.705Z,18.10
2022-09-15T15:06:32.542Z,18.04
2022-09-15T15:09:08.667Z,18.01
2022-09-15T15:11:37.114Z,18.00
2022-09-15T15:14:07.145Z,18.00
2022-09-15T15:16:35.250Z,18.00
2022-09-15T15:19:02.552Z,18.01
2022-09-15T15:21:41.886Z,18.07
2022-09-15T15:24:15.393Z,18.11
2022-09-15T15:26:47.251Z,18.14
2022-09-15T15:29:47.446Z,18.19
2022-09-15T15:32:21.174Z,18.27
2022-09-15T15:34:50.777Z,18.32
2022-09-15T15:37:27.340Z,18.33
2022-09-15T15:39:56.382Z,18.35
2022-09-15T15:42:24.496Z,18.35
2022-09-15T15:45:09.991Z,18.34
2022-09-15T15:47:37.771Z,18.31
2022-09-15T15:50:19.630Z,18.22
2022-09-15T15:52:48.030Z,18.08
2022-09-15T15:55:17.163Z,17.94
2022-09-15T15:57:45.284Z,17.81
2022-09-15T16:00:52.185Z,17.69
2022-09-15T16:03:21.471Z,17.58
2022-09-15T16:05:51.914Z,17.48
2022-09-15T16:08:29.343Z,17.41
2022-09-15T16:10:57.851Z,17.32
2022-09-15T16:13:26.545Z,17.26
2022-09-15T16:15:54.765Z,17.21
2022-09-15T16:18:23.210Z,17.15
2022-09-15T16:20:50.791Z,17.11
2022-09-15T16:23:20.270Z,17.07
2022-09-15T16:26:05.586Z,17.02
2022-09-15T16:28:32.911Z,16.94
2022-09-15T16:31:00.232Z,16.89
2022-09-15T16:33:27.831Z,16.84
2022-09-15T16:36:09.431Z,16.79
2022-09-15T16:38:37.905Z,16.71
2022-09-15T16:41:14.064Z,16.67
2022-09-15T16:43:41.319Z,16.62
2022-09-15T16:46:11.116Z,16.57
2022-09-15T16:48:40.433Z,16.52
2022-09-15T16:53:58.695Z,16.43
2022-09-15T16:56:26.140Z,16.40
2022-09-15T16:58:59.856Z,16.35
2022-09-15T17:01:28.106Z,16.32
2022-09-15T17:03:56.511Z,16.27
2022-09-15T17:06:24.150Z,16.23
2022-09-15T17:08:51.810Z,16.19
2022-09-15T17:11:21.831Z,16.16
2022-09-15T17:13:48.975Z,16.13
2022-09-15T17:16:19.832Z,16.10
2022-09-15T17:18:47.246Z,16.07
2022-09-15T17:21:16.784Z,16.04
2022-09-15T17:23:47.317Z,16.01
2022-09-15T17:26:19.171Z,15.99
2022-09-15T17:28:47.051Z,15.97
2022-09-15T17:31:24.115Z,15.95
2022-09-15T17:33:52.084Z,15.93
2022-09-15T17:36:20.107Z,15.91
2022-09-15T17:38:49.360Z,15.87
2022-09-15T17:41:22.102Z,15.84
2022-09-15T17:43:49.888Z,15.81
2022-09-15T17:46:18.251Z,15.79
2022-09-15T17:48:45.752Z,15.75
2022-09-15T17:51:17.684Z,15.72
2022-09-15T17:53:47.281Z,15.69
2022-09-15T17:56:15.271Z,15.66
2022-09-15T17:58:43.770Z,15.64
2022-09-15T18:01:15.194Z,15.62
2022-09-15T18:03:45.252Z,15.61
2022-09-15T18:06:13.495Z,15.59
2022-09-15T18:08:41.545Z,15.57
2022-09-15T18:11:12.087Z,15.56
2022-09-15T18:13:40.093Z,15.54
2022-09-15T18:16:13.543Z,15.52
2022-09-15T18:18:42.284Z,15.48
2022-09-15T18:21:16.584Z,15.45
2022-09-15T18:23:45.880Z,15.42
2022-09-15T18:26:13.341Z,15.41
2022-09-15T18:28:41.189Z,15.41
2022-09-15T18:31:11.671Z,15.38
2022-09-15T18:33:40.211Z,15.36
2022-09-15T18:36:08.674Z,15.32
2022-09-15T18:38:36.546Z,15.29
2022-09-15T18:41:10.160Z,15.25
2022-09-15T18:43:38.649Z,15.20
2022-09-15T18:46:06.321Z,15.14
2022-09-15T18:48:34.372Z,15.10
2022-09-15T18:51:02.350Z,15.08
2022-09-15T18:53:31.876Z,15.06
2022-09-15T18:55:59.831Z,15.03
2022-09-15T18:58:27.792Z,15.00
2022-09-15T19:01:00.920Z,14.96
2022-09-15T19:03:29.152Z,14.91
2022-09-15T19:05:56.618Z,14.87
2022-09-15T19:08:24.591Z,14.81
2022-09-15T19:10:59.958Z,14.76
2022-09-15T19:13:29.923Z,14.71
2022-09-15T19:16:03.745Z,14.65
2022-09-15T19:18:32.315Z,14.59
2022-09-15T19:21:11.202Z,14.54
2022-09-15T19:23:40.157Z,14.49
2022-09-15T19:26:10.817Z,14.45
2022-09-15T19:28:38.331Z,14.40
2022-09-15T19:31:07.404Z,14.36
2022-09-15T19:33:35.391Z,14.32
2022-09-15T19:36:24.244Z,14.27
2022-09-15T19:38:52.209Z,14.22
2022-09-15T19:41:20.184Z,14.16
2022-09-15T19:43:48.144Z,14.09
2022-09-15T19:46:21.666Z,14.03
2022-09-15T19:48:50.253Z,13.98
2022-09-15T19:51:18.588Z,13.93
2022-09-15T19:53:46.920Z,13.89
2022-09-15T19:56:17.205Z,13.85
2022-09-15T19:58:46.692Z,13.81
2022-09-15T20:01:14.284Z,13.78
2022-09-15T20:03:41.414Z,13.74
2022-09-15T20:06:09.690Z,13.69
2022-09-15T20:08:37.355Z,13.64
2022-09-15T20:11:08.499Z,13.60
2022-09-15T20:13:39.693Z,13.54
2022-09-15T20:16:07.477Z,13.47
2022-09-15T20:18:39.691Z,13.41
2022-09-15T20:21:14.744Z,13.35
2022-09-15T20:23:49.551Z,13.27
2022-09-15T20:26:18.132Z,13.20
2022-09-15T20:28:45.931Z,13.14
2022-09-15T20:31:19.584Z,13.08
2022-09-15T20:33:47.672Z,13.01
2022-09-15T20:36:22.324Z,12.94
2022-09-15T20:38:51.321Z,12.86
2022-09-15T20:41:20.381Z,12.79
2022-09-15T20:43:47.571Z,12.74
2022-09-15T20:46:17.982Z,12.70
2022-09-15T20:48:46.890Z,12.64
2022-09-15T20:51:18.610Z,12.59
2022-09-15T20:53:52.744Z,12.55
2022-09-15T20:56:23.665Z,12.51
2022-09-15T20:58:51.652Z,12.50
2022-09-15T21:01:36.361Z,12.49
2022-09-15T21:04:05.509Z,12.49
2022-09-15T21:06:33.471Z,12.49
2022-09-15T21:09:01.003Z,12.49
2022-09-15T21:11:29.611Z,12.51
2022-09-15T21:13:57.744Z,12.51
2022-09-15T21:16:27.276Z,12.52
2022-09-15T21:18:55.802Z,12.54
2022-09-15T21:21:25.170Z,12.54
2022-09-15T21:24:02.351Z,12.53
2022-09-15T21:27:00.321Z,12.52
2022-09-15T21:29:28.878Z,12.52
2022-09-15T21:31:56.422Z,12.51
2022-09-15T21:34:24.428Z,12.51
2022-09-15T21:36:53.857Z,12.50
2022-09-15T21:39:21.692Z,12.51
2022-09-15T21:41:49.153Z,12.52
2022-09-15T21:44:16.909Z,12.52
2022-09-15T21:46:45.406Z,12.53
2022-09-15T21:49:12.846Z,12.55
2022-09-15T21:51:40.099Z,12.56
2022-09-15T21:54:07.379Z,12.55
2022-09-15T21:56:34.602Z,12.56
2022-09-15T21:59:03.516Z,12.55
2022-09-15T22:01:32.566Z,12.54
2022-09-15T22:04:06.063Z,12.53
2022-09-15T22:06:35.870Z,12.52
2022-09-15T22:09:07.135Z,12.50
2022-09-15T22:11:34.931Z,12.46
2022-09-15T22:14:03.618Z,12.43
2022-09-15T22:16:31.105Z,12.39
2022-09-15T22:18:58.304Z,12.34
2022-09-15T22:21:27.795Z,12.31
2022-09-15T22:23:56.911Z,12.27
2022-09-15T22:26:31.730Z,12.24
2022-09-15T22:28:59.935Z,12.20
2022-09-15T22:31:28.033Z,12.17
2022-09-15T22:33:55.890Z,12.15
2022-09-15T22:36:29.228Z,12.13
2022-09-15T22:39:04.106Z,12.12
2022-09-15T22:41:37.272Z,12.13
2022-09-15T22:44:05.866Z,12.15
2022-09-15T22:46:33.315Z,12.18
2022-09-15T22:49:02.170Z,12.21
2022-09-15T22:51:29.951Z,12.24
2022-09-15T22:53:57.747Z,12.27
2022-09-15T22:56:26.922Z,12.31
2022-09-15T22:58:55.052Z,12.34
2022-09-15T23:01:28.137Z,12.38
2022-09-15T23:03:57.595Z,12.41
2022-09-15T23:06:26.894Z,12.44
2022-09-15T23:08:58.851Z,12.47
2022-09-15T23:11:28.207Z,12.48
2022-09-15T23:13:56.150Z,12.51
2022-09-15T23:16:24.735Z,12.53
2022-09-15T23:18:53.076Z,12.54
2022-09-15T23:21:20.952Z,12.56
2022-09-15T23:23:49.497Z,12.58
2022-09-15T23:26:18.827Z,12.60
2022-09-15T23:28:46.291Z,12.61
2022-09-15T23:31:14.435Z,12.63
2022-09-15T23:33:42.473Z,12.65
2022-09-15T23:36:12.235Z,12.66
2022-09-15T23:38:41.113Z,12.67
2022-09-15T23:41:09.015Z,12.67
2022-09-15T23:43:36.673Z,12.67
2022-09-15T23:46:04.856Z,12.66
2022-09-15T23:48:32.913Z,12.65
2022-09-15T23:51:01.096Z,12.64
2022-09-15T23:53:29.364Z,12.63
2022-09-15T23:55:57.137Z,12.61
2022-09-15T23:58:24.465Z,12.58
